Time;durP1;ratioP1;P1;durP2;ratioP2;P2;SDS_P1;SDS_P2;PMS_P1;PMS_P2;Temp;Humidity;BMP_temperature;BMP_pressure;BME280_temperature;BME280_humidity;BME280_pressure;Samples;Min_cycle;Max_cycle;Signal;HPM_P1;HPM_P2
2023/04/06 00:00:18;;;;;;;8.63;5.35;;;-3276.70;90.60;;;;;;5024041;28;20048;-77
2023/04/06 00:02:44;;;;;;;15.65;5.70;;;-3276.70;90.50;;;;;;5021533;28;20494;-77
2023/04/06 00:05:10;;;;;;;13.73;6.35;;;-3276.70;90.70;;;;;;5023204;28;20037;-77
2023/04/06 00:07:35;;;;;;;10.15;5.80;;;-3276.60;90.50;;;;;;5025242;28;20029;-77
2023/04/06 00:10:01;;;;;;;8.48;5.20;;;-3276.70;90.80;;;;;;5022340;28;20040;-77
2023/04/06 00:12:26;;;;;;;11.52;6.18;;;-3276.70;90.80;;;;;;5020326;28;20037;-77
2023/04/06 00:14:52;;;;;;;10.77;6.15;;;-3276.60;90.60;;;;;;5024863;28;20408;-77
2023/04/06 00:17:17;;;;;;;9.38;5.93;;;-3276.60;90.90;;;;;;5024368;28;20108;-77
2023/04/06 00:19:43;;;;;;;17.05;6.25;;;-3276.50;90.70;;;;;;5015113;28;20037;-77
2023/04/06 00:22:08;;;;;;;10.50;5.85;;;-3276.70;91.40;;;;;;5025160;28;20068;-77
2023/04/06 00:24:34;;;;;;;9.93;5.88;;;-3276.60;90.80;;;;;;5021954;28;20033;-77
2023/04/06 00:26:59;;;;;;;10.38;6.00;;;-3276.60;91.00;;;;;;5028353;28;20141;-77
2023/04/06 00:29:25;;;;;;;12.30;6.90;;;-3276.60;91.00;;;;;;5024326;28;20022;-77
2023/04/06 00:31:50;;;;;;;11.30;6.07;;;-3276.50;91.20;;;;;;5028273;28;20036;-77
2023/04/06 00:34:16;;;;;;;11.38;5.80;;;-3276.60;91.10;;;;;;5025544;28;20045;-77
2023/04/06 00:36:41;;;;;;;11.35;5.97;;;0.00;91.30;;;;;;5025182;28;20063;-77
2023/04/06 00:39:07;;;;;;;12.13;7.00;;;0.00;91.00;;;;;;5028884;28;20372;-77
2023/04/06 00:41:32;;;;;;;10.77;6.00;;;0.00;90.90;;;;;;5027731;28;20419;-77
2023/04/06 00:43:58;;;;;;;10.43;6.10;;;0.00;90.90;;;;;;5019973;28;20208;-77
2023/04/06 00:46:24;;;;;;;11.98;6.38;;;0.00;90.60;;;;;;5026943;28;20029;-78
2023/04/06 00:48:49;;;;;;;10.85;6.63;;;0.00;90.40;;;;;;5026216;28;20069;-78
2023/04/06 00:51:15;;;;;;;10.90;6.20;;;0.00;90.20;;;;;;5022535;28;20189;-78
2023/04/06 00:53:40;;;;;;;12.93;6.25;;;0.10;90.00;;;;;;5022306;28;20166;-78
2023/04/06 00:56:06;;;;;;;10.88;6.57;;;0.20;90.10;;;;;;5029026;28;20060;-77
2023/04/06 00:58:31;;;;;;;12.80;6.78;;;0.20;89.70;;;;;;5025319;28;20579;-78
2023/04/06 01:00:58;;;;;;;11.20;6.45;;;0.10;89.60;;;;;;5029713;28;20127;-77
2023/04/06 01:03:23;;;;;;;10.18;6.03;;;0.10;89.70;;;;;;5026474;28;20029;-77
2023/04/06 01:05:49;;;;;;;14.88;6.93;;;0.20;89.70;;;;;;5024873;28;20063;-77
2023/04/06 01:08:14;;;;;;;10.07;6.60;;;0.20;89.50;;;;;;5027348;28;20091;-77
2023/04/06 01:10:40;;;;;;;11.45;5.60;;;0.10;89.30;;;;;;5028373;28;20110;-78
2023/04/06 01:13:06;;;;;;;12.70;6.32;;;0.20;89.40;;;;;;5023265;28;20041;-78
2023/04/06 01:15:35;;;;;;;10.20;6.43;;;0.20;89.20;;;;;;5025582;28;20077;-78
2023/04/06 01:18:00;;;;;;;12.43;6.68;;;0.20;88.80;;;;;;5028937;28;20055;-77
2023/04/06 01:20:26;;;;;;;11.18;6.72;;;0.20;88.50;;;;;;5021927;28;20471;-78
2023/04/06 01:22:51;;;;;;;12.68;6.50;;;0.10;88.60;;;;;;5024853;28;20409;-77
2023/04/06 01:25:17;;;;;;;10.75;6.10;;;0.10;88.50;;;;;;5020779;28;20095;-77
2023/04/06 01:27:42;;;;;;;11.35;6.40;;;0.10;88.50;;;;;;5026284;28;20133;-77
2023/04/06 01:30:08;;;;;;;10.90;6.45;;;0.10;88.50;;;;;;5019638;28;20120;-77
2023/04/06 01:32:34;;;;;;;12.25;6.38;;;0.10;88.80;;;;;;5022331;28;20049;-77
2023/04/06 01:34:59;;;;;;;11.43;6.97;;;0.00;88.40;;;;;;5026706;28;20498;-78
2023/04/06 01:37:25;;;;;;;10.07;6.47;;;0.00;88.40;;;;;;5014830;28;20034;-77
2023/04/06 01:39:50;;;;;;;12.48;6.95;;;0.00;88.50;;;;;;5024869;28;20462;-77
2023/04/06 01:42:16;;;;;;;12.90;7.45;;;0.00;88.40;;;;;;5022374;28;20470;-77
2023/04/06 01:44:42;;;;;;;13.05;7.18;;;0.00;88.30;;;;;;5028449;28;20037;-77
2023/04/06 01:47:07;;;;;;;11.85;7.47;;;0.00;88.00;;;;;;5026958;28;20068;-77
2023/04/06 01:49:33;;;;;;;10.27;6.57;;;0.00;87.60;;;;;;5035870;28;20061;-77
2023/04/06 01:51:59;;;;;;;13.95;7.63;;;0.00;87.70;;;;;;5025320;28;20029;-77
2023/04/06 01:54:25;;;;;;;10.13;6.85;;;0.00;87.50;;;;;;5026968;28;20434;-76
2023/04/06 01:56:52;;;;;;;12.65;6.97;;;0.00;87.40;;;;;;5012177;28;20330;-77
2023/04/06 01:59:17;;;;;;;12.20;7.45;;;0.00;87.50;;;;;;5024411;28;20342;-77
2023/04/06 02:01:43;;;;;;;11.52;7.50;;;0.00;87.50;;;;;;5023339;28;20038;-77
2023/04/06 02:04:08;;;;;;;13.88;7.57;;;0.00;87.30;;;;;;5024010;28;20112;-77
2023/04/06 02:06:34;;;;;;;10.90;7.53;;;0.00;86.70;;;;;;5021085;28;20048;-77
2023/04/06 02:08:59;;;;;;;11.40;7.43;;;0.00;86.60;;;;;;5027583;28;20037;-77
2023/04/06 02:11:25;;;;;;;11.00;7.60;;;0.00;86.40;;;;;;5018867;28;20120;-77
2023/04/06 02:13:50;;;;;;;10.88;7.10;;;-3276.70;86.20;;;;;;5025064;28;20055;-77
2023/04/06 02:16:15;;;;;;;12.82;7.50;;;0.00;85.80;;;;;;5007413;28;20526;-77
2023/04/06 02:18:41;;;;;;;12.30;8.27;;;0.00;85.70;;;;;;5023475;28;20030;-77
2023/04/06 02:21:06;;;;;;;12.02;7.43;;;0.00;85.20;;;;;;5023576;28;20116;-77
2023/04/06 02:23:32;;;;;;;13.40;8.38;;;0.00;85.00;;;;;;5025739;28;20055;-78
2023/04/06 02:25:57;;;;;;;12.82;7.80;;;0.00;84.90;;;;;;5015430;28;20375;-77
2023/04/06 02:28:23;;;;;;;12.63;8.35;;;0.00;84.60;;;;;;5017193;28;20036;-77
2023/04/06 02:30:48;;;;;;;15.25;7.72;;;0.00;84.40;;;;;;5020895;28;20045;-77
2023/04/06 02:33:14;;;;;;;10.73;7.47;;;0.10;84.30;;;;;;5028565;28;20063;-77
2023/04/06 02:35:40;;;;;;;11.20;7.57;;;0.10;84.00;;;;;;5020660;28;20099;-78
2023/04/06 02:38:05;;;;;;;10.35;7.43;;;0.00;84.10;;;;;;5026133;28;20120;-77
2023/04/06 02:40:31;;;;;;;14.35;7.10;;;0.00;84.30;;;;;;5026142;28;20108;-77
2023/04/06 02:42:56;;;;;;;10.63;7.20;;;-3276.60;84.50;;;;;;5026914;28;20391;-77
2023/04/06 02:45:22;;;;;;;10.40;7.15;;;-3276.60;84.70;;;;;;5026963;28;20128;-78
2023/04/06 02:47:47;;;;;;;13.13;7.72;;;-3276.50;84.70;;;;;;5026828;28;20084;-77
2023/04/06 02:50:13;;;;;;;14.25;8.27;;;-3276.50;84.40;;;;;;5015413;28;20033;-77
2023/04/06 02:52:38;;;;;;;10.18;7.32;;;-3276.60;84.50;;;;;;5025205;28;20380;-77
2023/04/06 02:55:04;;;;;;;12.80;7.93;;;-3276.70;83.80;;;;;;5018368;28;20079;-78
2023/04/06 02:57:30;;;;;;;12.10;8.07;;;0.00;83.20;;;;;;5022919;28;20131;-77
2023/04/06 02:59:55;;;;;;;12.43;7.88;;;0.00;83.10;;;;;;5030970;28;20495;-77
2023/04/06 03:02:20;;;;;;;13.68;8.10;;;0.00;82.70;;;;;;5025152;28;20089;-77
2023/04/06 03:04:47;;;;;;;11.13;7.72;;;0.00;82.20;;;;;;5024473;28;20055;-77
2023/04/06 03:07:12;;;;;;;10.05;7.32;;;0.00;82.20;;;;;;5026989;28;20415;-77
2023/04/06 03:09:38;;;;;;;12.77;7.65;;;0.10;81.60;;;;;;5024214;28;20151;-77
2023/04/06 03:12:04;;;;;;;12.02;7.38;;;0.20;81.40;;;;;;5021893;28;20382;-77
2023/04/06 03:14:29;;;;;;;10.75;7.55;;;0.10;81.10;;;;;;5032617;28;20060;-77
2023/04/06 03:16:55;;;;;;;10.75;8.00;;;0.10;80.90;;;;;;5022972;28;20107;-77
2023/04/06 03:19:20;;;;;;;11.10;7.53;;;0.10;81.00;;;;;;5025291;28;20033;-77
2023/04/06 03:21:47;;;;;;;10.93;7.43;;;0.10;81.00;;;;;;5003411;28;20041;-77
2023/04/06 03:24:13;;;;;;;13.85;7.53;;;0.10;80.90;;;;;;5019936;28;20049;-77
2023/04/06 03:26:39;;;;;;;9.68;7.10;;;0.20;80.20;;;;;;5023545;28;20116;-78
2023/04/06 03:29:04;;;;;;;11.70;7.38;;;0.20;79.70;;;;;;5022035;28;20116;-77
2023/04/06 03:31:30;;;;;;;11.32;7.00;;;0.20;79.80;;;;;;5026165;28;20407;-77
2023/04/06 03:33:55;;;;;;;10.18;6.57;;;0.20;79.90;;;;;;5002417;28;20041;-78
2023/04/06 03:36:21;;;;;;;9.18;6.47;;;0.10;80.20;;;;;;5021206;28;20029;-77
2023/04/06 03:38:47;;;;;;;12.32;6.68;;;0.10;79.70;;;;;;5023766;28;20033;-78
2023/04/06 03:41:12;;;;;;;9.70;6.68;;;0.20;79.40;;;;;;5023867;28;20415;-77
2023/04/06 03:43:38;;;;;;;11.20;7.13;;;0.20;79.50;;;;;;5023646;28;20423;-77
2023/04/06 03:46:03;;;;;;;9.85;6.85;;;0.10;79.50;;;;;;5023396;28;20274;-77
2023/04/06 03:48:29;;;;;;;12.65;6.75;;;0.10;79.50;;;;;;5024749;28;20067;-77
2023/04/06 03:50:54;;;;;;;12.88;7.10;;;0.20;79.30;;;;;;5021906;28;20033;-77
2023/04/06 03:53:20;;;;;;;10.52;6.68;;;0.10;79.00;;;;;;5024762;28;20112;-77
2023/04/06 03:55:46;;;;;;;9.10;6.15;;;0.10;79.30;;;;;;5009910;28;20045;-78
2023/04/06 03:58:11;;;;;;;9.15;6.80;;;0.20;78.90;;;;;;5028796;28;20103;-77
2023/04/06 04:00:37;;;;;;;10.27;6.85;;;0.20;78.60;;;;;;5026373;28;20041;-77
2023/04/06 04:03:02;;;;;;;9.80;6.93;;;0.30;78.50;;;;;;5021488;28;20037;-77
2023/04/06 04:05:28;;;;;;;10.60;7.50;;;0.30;78.40;;;;;;5022007;28;20049;-77
2023/04/06 04:07:54;;;;;;;11.00;7.05;;;0.20;78.20;;;;;;5024318;28;20025;-77
2023/04/06 04:10:19;;;;;;;9.90;7.25;;;0.20;78.40;;;;;;5005897;28;20112;-77
2023/04/06 04:12:45;;;;;;;10.98;6.47;;;0.10;78.70;;;;;;5027781;28;20037;-77
2023/04/06 04:15:10;;;;;;;10.85;6.95;;;0.10;78.40;;;;;;5025923;28;20171;-77
2023/04/06 04:17:35;;;;;;;11.30;7.05;;;0.30;78.00;;;;;;5024906;28;20038;-77
2023/04/06 04:20:01;;;;;;;10.18;6.70;;;0.20;78.10;;;;;;5025100;28;20074;-77
2023/04/06 04:22:30;;;;;;;10.98;7.55;;;0.20;78.30;;;;;;5027242;28;20125;-78
2023/04/06 04:24:55;;;;;;;11.48;7.15;;;0.10;78.70;;;;;;5022032;28;20093;-77
2023/04/06 04:27:21;;;;;;;11.35;7.43;;;0.10;78.70;;;;;;5024506;28;20076;-76
2023/04/06 04:29:47;;;;;;;10.77;7.57;;;0.10;78.70;;;;;;5027599;28;20021;-76
2023/04/06 04:32:12;;;;;;;13.30;7.72;;;0.00;78.80;;;;;;5024365;28;20034;-72
2023/04/06 04:34:40;;;;;;;12.10;7.55;;;0.00;79.20;;;;;;5027887;28;20483;-73
2023/04/06 04:37:05;;;;;;;12.13;7.63;;;-3276.70;79.60;;;;;;5026211;28;20053;-73
2023/04/06 04:39:31;;;;;;;11.32;7.97;;;-3276.60;79.90;;;;;;5025981;28;20489;-73
2023/04/06 04:41:57;;;;;;;11.23;8.32;;;-3276.50;80.30;;;;;;5023394;28;20064;-73
2023/04/06 04:44:22;;;;;;;13.20;7.78;;;-3276.50;80.40;;;;;;5028278;28;20362;-72
2023/04/06 04:46:47;;;;;;;14.30;7.57;;;-3276.50;80.30;;;;;;5026863;28;20164;-73
2023/04/06 04:49:13;;;;;;;14.52;7.93;;;-3276.50;80.10;;;;;;5009631;28;20041;-74
2023/04/06 04:51:40;;;;;;;11.60;8.00;;;-3276.40;80.30;;;;;;5025872;28;20455;-74
2023/04/06 04:54:05;;;;;;;11.80;7.82;;;-3276.40;80.60;;;;;;5026560;28;20029;-73
2023/04/06 04:56:31;;;;;;;15.90;8.00;;;-3276.40;80.50;;;;;;5027049;28;20033;-74
2023/04/06 04:58:56;;;;;;;11.18;7.75;;;-3276.40;80.60;;;;;;5026939;28;20041;-73
2023/04/06 05:01:21;;;;;;;11.32;7.63;;;-3276.30;80.80;;;;;;5024589;28;20033;-73
2023/04/06 05:03:47;;;;;;;12.20;8.20;;;-3276.30;81.00;;;;;;5026276;28;20377;-75
2023/04/06 05:06:12;;;;;;;11.30;7.35;;;-3276.30;81.20;;;;;;5020822;28;20093;-76
2023/04/06 05:08:38;;;;;;;14.15;8.77;;;-3276.30;80.90;;;;;;5029676;28;20036;-75
2023/04/06 05:11:04;;;;;;;12.93;7.85;;;-3276.30;80.90;;;;;;5011180;28;20034;-75
2023/04/06 05:13:30;;;;;;;11.02;7.40;;;-3276.40;80.70;;;;;;5024508;28;20429;-75
2023/04/06 05:15:56;;;;;;;13.15;7.95;;;-3276.40;80.80;;;;;;5026492;28;20025;-75
2023/04/06 05:18:21;;;;;;;12.00;7.80;;;-3276.50;80.80;;;;;;5027608;28;20033;-75
2023/04/06 05:20:47;;;;;;;11.15;7.07;;;-3276.50;80.60;;;;;;5025975;28;20178;-76
2023/04/06 05:23:12;;;;;;;11.32;7.20;;;-3276.60;80.40;;;;;;5022524;28;20041;-77
2023/04/06 05:25:38;;;;;;;13.32;7.32;;;-3276.60;80.10;;;;;;5017882;28;20038;-77
2023/04/06 05:28:03;;;;;;;12.30;7.45;;;-3276.70;79.90;;;;;;5024662;28;20029;-77
2023/04/06 05:30:29;;;;;;;13.70;7.30;;;-3276.70;79.90;;;;;;5024137;28;20051;-77
2023/04/06 05:32:55;;;;;;;13.35;7.43;;;-3276.70;79.90;;;;;;5030192;28;20057;-76
2023/04/06 05:35:20;;;;;;;12.38;7.20;;;0.00;79.90;;;;;;5025633;28;20466;-77
2023/04/06 05:37:45;;;;;;;14.07;7.80;;;0.00;79.60;;;;;;5026548;28;20990;-77
2023/04/06 05:40:11;;;;;;;14.07;7.05;;;0.00;79.50;;;;;;5017126;28;20044;-77
2023/04/06 05:42:38;;;;;;;13.43;6.97;;;0.20;79.10;;;;;;5022852;28;20034;-77
2023/04/06 05:45:05;;;;;;;9.35;6.53;;;0.20;78.80;;;;;;5026984;28;20048;-77
2023/04/06 05:47:30;;;;;;;11.13;6.00;;;0.20;78.90;;;;;;5027212;28;20026;-77
2023/04/06 05:49:56;;;;;;;12.63;6.35;;;0.40;78.60;;;;;;5018850;28;20033;-77
2023/04/06 05:52:21;;;;;;;11.15;6.18;;;0.50;77.90;;;;;;5026271;28;20107;-77
2023/04/06 05:54:47;;;;;;;12.95;5.85;;;0.60;77.80;;;;;;5021977;28;20144;-77
2023/04/06 05:57:12;;;;;;;10.65;5.88;;;0.70;77.50;;;;;;5027347;28;20074;-78
2023/04/06 05:59:38;;;;;;;10.55;6.05;;;0.80;77.10;;;;;;5016333;28;20095;-78
2023/04/06 06:02:03;;;;;;;10.52;5.88;;;0.90;76.80;;;;;;5008817;28;20033;-77
2023/04/06 06:04:30;;;;;;;9.48;5.20;;;1.00;76.20;;;;;;5027208;28;20446;-78
2023/04/06 06:06:56;;;;;;;11.85;5.70;;;1.10;76.50;;;;;;5005644;28;20042;-78
2023/04/06 06:09:22;;;;;;;8.40;5.15;;;1.30;75.70;;;;;;5025539;28;20084;-78
2023/04/06 06:11:48;;;;;;;11.23;5.00;;;1.40;75.40;;;;;;5024843;28;20098;-77
2023/04/06 06:14:13;;;;;;;7.65;4.57;;;1.50;74.70;;;;;;5010989;28;20077;-77
2023/04/06 06:16:39;;;;;;;11.90;5.32;;;1.70;74.60;;;;;;5024988;28;20094;-79
2023/04/06 06:19:04;;;;;;;7.63;4.72;;;1.70;74.10;;;;;;5022280;28;20435;-78
2023/04/06 06:21:31;;;;;;;8.55;4.90;;;1.90;73.30;;;;;;5021683;28;20038;-78
2023/04/06 06:23:56;;;;;;;10.05;5.63;;;2.00;73.20;;;;;;5024541;28;20030;-78
2023/04/06 06:26:22;;;;;;;7.55;4.60;;;2.20;72.80;;;;;;5008234;28;20501;-77
2023/04/06 06:28:47;;;;;;;8.15;4.72;;;2.40;71.90;;;;;;5022443;28;20472;-78
2023/04/06 06:31:13;;;;;;;8.95;4.50;;;2.60;71.40;;;;;;5005139;28;20172;-78
2023/04/06 06:33:38;;;;;;;8.32;4.60;;;2.70;71.40;;;;;;5019767;28;20473;-78
2023/04/06 06:36:04;;;;;;;7.68;4.28;;;2.90;70.60;;;;;;5016376;28;20029;-78
2023/04/06 06:38:29;;;;;;;10.02;4.60;;;3.00;69.50;;;;;;5000613;28;20143;-78
2023/04/06 06:40:55;;;;;;;8.82;4.50;;;3.10;70.60;;;;;;5000266;28;20040;-79
2023/04/06 06:43:20;;;;;;;7.78;3.80;;;3.20;68.30;;;;;;5021235;28;20496;-79
2023/04/06 06:45:46;;;;;;;7.93;3.80;;;3.30;68.00;;;;;;5018948;28;20140;-79
2023/04/06 06:48:11;;;;;;;6.15;4.00;;;3.50;67.80;;;;;;5019257;28;20569;-79
2023/04/06 06:50:37;;;;;;;7.95;4.13;;;3.60;67.10;;;;;;5016603;28;20099;-75
2023/04/06 06:53:02;;;;;;;8.07;4.32;;;3.80;68.00;;;;;;5014327;28;20041;-75
2023/04/06 06:55:28;;;;;;;7.68;3.97;;;3.90;65.90;;;;;;5023700;28;20059;-74
2023/04/06 06:57:53;;;;;;;7.68;4.13;;;4.10;66.00;;;;;;5022491;28;20448;-74
2023/04/06 07:00:22;;;;;;;7.53;4.05;;;4.10;65.80;;;;;;5021295;28;20030;-74
2023/04/06 07:02:48;;;;;;;6.10;3.70;;;4.10;64.60;;;;;;5016196;28;20052;-75
2023/04/06 07:05:15;;;;;;;7.07;4.00;;;4.30;64.60;;;;;;4996110;28;20357;-76
2023/04/06 07:07:41;;;;;;;8.48;3.75;;;4.60;64.60;;;;;;5000432;28;20038;-74
2023/04/06 07:10:07;;;;;;;8.00;3.67;;;4.80;65.00;;;;;;5019692;28;20040;-74
2023/04/06 07:12:33;;;;;;;9.15;4.15;;;4.90;64.40;;;;;;5019865;28;20025;-75
2023/04/06 07:14:58;;;;;;;7.20;3.88;;;5.00;64.10;;;;;;5014948;28;20044;-74
2023/04/06 07:17:24;;;;;;;5.93;4.18;;;5.00;62.70;;;;;;5022184;28;20080;-74
2023/04/06 07:19:49;;;;;;;6.18;4.15;;;4.90;63.60;;;;;;5025187;28;20507;-74
2023/04/06 07:22:15;;;;;;;7.13;4.28;;;5.00;63.40;;;;;;5023883;28;20060;-76
2023/04/06 07:24:40;;;;;;;6.90;4.30;;;5.20;63.10;;;;;;5021276;28;20125;-75
2023/04/06 07:27:06;;;;;;;9.65;4.47;;;5.30;63.60;;;;;;5024847;28;20067;-75
2023/04/06 07:29:31;;;;;;;7.47;4.07;;;5.30;61.30;;;;;;5021981;28;20178;-73
2023/04/06 07:31:57;;;;;;;7.13;4.45;;;5.30;61.90;;;;;;5030805;28;20327;-75
2023/04/06 07:34:22;;;;;;;6.88;4.10;;;5.30;60.70;;;;;;5029377;28;20033;-73
2023/04/06 07:36:48;;;;;;;10.98;4.30;;;5.50;61.30;;;;;;5005147;28;20143;-74
2023/04/06 07:39:14;;;;;;;6.88;4.05;;;5.60;60.90;;;;;;5025483;28;20041;-74
2023/04/06 07:41:40;;;;;;;8.23;4.57;;;5.80;59.60;;;;;;5028352;28;20419;-74
2023/04/06 07:44:05;;;;;;;6.60;4.28;;;5.90;60.40;;;;;;5016277;28;20030;-74
2023/04/06 07:46:31;;;;;;;11.15;5.25;;;6.10;59.60;;;;;;5024942;28;20087;-74
2023/04/06 07:48:57;;;;;;;7.00;4.55;;;6.10;58.90;;;;;;5021462;28;20350;-73
2023/04/06 07:51:23;;;;;;;9.63;5.28;;;6.20;58.60;;;;;;5021188;28;20127;-74
2023/04/06 07:53:50;;;;;;;9.65;4.55;;;6.20;57.70;;;;;;5008068;28;20440;-74
2023/04/06 07:56:16;;;;;;;9.38;4.70;;;6.30;57.50;;;;;;5008923;28;20053;-75
2023/04/06 07:58:41;;;;;;;7.60;4.32;;;6.50;57.70;;;;;;5027486;28;20064;-74
2023/04/06 08:01:07;;;;;;;9.63;4.88;;;6.50;57.40;;;;;;5021187;28;20105;-74
2023/04/06 08:03:36;;;;;;;8.07;4.60;;;6.70;56.40;;;;;;5020370;28;20461;-74
2023/04/06 08:06:02;;;;;;;8.70;4.55;;;7.00;56.50;;;;;;5002991;28;20113;-74
2023/04/06 08:08:28;;;;;;;8.18;4.20;;;7.10;55.50;;;;;;5007665;28;20044;-74
2023/04/06 08:10:53;;;;;;;6.60;4.47;;;7.50;55.30;;;;;;5020730;28;20404;-74
2023/04/06 08:13:19;;;;;;;8.93;4.32;;;7.90;54.80;;;;;;5020171;28;20057;-74
2023/04/06 08:15:45;;;;;;;10.27;4.85;;;7.90;53.40;;;;;;5024936;28;20159;-74
2023/04/06 08:18:11;;;;;;;8.70;4.82;;;7.80;52.70;;;;;;5026401;28;20327;-74
2023/04/06 08:20:37;;;;;;;8.10;4.65;;;7.80;51.60;;;;;;4998310;28;20061;-75
2023/04/06 08:23:02;;;;;;;7.90;4.03;;;8.00;51.90;;;;;;5029052;28;20124;-75
2023/04/06 08:25:28;;;;;;;8.57;4.38;;;7.90;50.60;;;;;;5024034;28;20124;-74
2023/04/06 08:27:53;;;;;;;9.20;4.78;;;8.40;50.70;;;;;;5026460;28;20519;-75
2023/04/06 08:30:19;;;;;;;7.20;4.28;;;8.70;49.80;;;;;;5022708;28;20444;-75
2023/04/06 08:32:47;;;;;;;6.78;4.07;;;8.90;50.00;;;;;;5025552;28;20037;-78
2023/04/06 08:35:13;;;;;;;7.75;4.45;;;9.20;50.70;;;;;;5028319;28;20030;-75
2023/04/06 08:37:39;;;;;;;9.38;4.65;;;8.90;47.70;;;;;;5018119;28;20036;-73
2023/04/06 08:40:05;;;;;;;7.68;4.40;;;9.10;50.70;;;;;;5010541;28;20433;-75
2023/04/06 08:42:33;;;;;;;8.45;4.47;;;9.60;48.10;;;;;;5014852;28;20040;-74
2023/04/06 08:44:59;;;;;;;9.50;4.30;;;9.60;46.60;;;;;;5025730;28;20090;-74
2023/04/06 08:47:25;;;;;;;7.95;4.07;;;9.80;46.50;;;;;;5022893;28;20174;-80
2023/04/06 08:49:52;;;;;;;9.20;3.47;;;9.90;45.10;;;;;;5029751;28;20104;-80
2023/04/06 08:52:18;;;;;;;6.15;2.70;;;10.00;44.50;;;;;;5028175;28;20145;-79
2023/04/06 08:54:44;;;;;;;5.72;2.58;;;9.60;44.50;;;;;;5023640;28;20044;-79
2023/04/06 08:57:10;;;;;;;5.45;2.80;;;9.80;43.90;;;;;;5035919;28;20033;-79
2023/04/06 08:59:36;;;;;;;7.30;2.65;;;9.90;43.80;;;;;;5026961;28;20585;-79
2023/04/06 09:02:05;;;;;;;5.53;2.83;;;9.90;44.00;;;;;;5025976;28;20038;-75
2023/04/06 09:04:31;;;;;;;5.97;3.08;;;10.40;44.60;;;;;;5021701;28;20038;-75
2023/04/06 09:06:57;;;;;;;9.55;2.95;;;10.40;42.20;;;;;;5020908;28;20040;-75
2023/04/06 09:09:24;;;;;;;5.85;2.75;;;10.30;41.50;;;;;;5023895;28;20030;-75
2023/04/06 09:11:51;;;;;;;5.47;2.60;;;10.40;41.40;;;;;;5027130;28;20080;-75
2023/04/06 09:14:32;;;;;;;8.32;2.85;;;10.40;42.50;;;;;;5029960;28;20033;-75
2023/04/06 09:16:58;;;;;;;;;;;10.60;41.20;;;;;;5005845;28;20068;-75
2023/04/06 09:19:23;;;;;;;4.15;2.55;;;10.90;41.10;;;;;;5027454;28;20039;-77
2023/04/06 09:21:49;;;;;;;4.85;2.47;;;10.70;40.60;;;;;;5020187;28;20757;-77
2023/04/06 09:24:14;;;;;;;5.25;3.00;;;10.60;40.50;;;;;;5022087;28;20037;-77
2023/04/06 09:26:47;;;;;;;5.95;2.90;;;10.50;41.00;;;;;;5026701;28;20037;-77
2023/04/06 09:29:26;;;;;;;9.05;2.95;;;11.00;41.40;;;;;;5024416;28;20546;-77
2023/04/06 09:31:52;;;;;;;6.22;2.80;;;11.30;40.90;;;;;;5025051;28;20091;-77
2023/04/06 09:34:22;;;;;;;6.47;2.70;;;11.60;40.50;;;;;;5018824;28;20351;-78
2023/04/06 09:36:48;;;;;;;5.70;2.83;;;11.60;39.20;;;;;;5020577;28;20169;-79
2023/04/06 09:39:13;;;;;;;6.35;2.88;;;11.20;39.80;;;;;;5018237;28;20523;-78
2023/04/06 09:41:39;;;;;;;8.85;3.20;;;11.50;40.70;;;;;;5003020;28;20025;-77
2023/04/06 09:44:13;;;;;;;6.18;3.30;;;11.30;39.80;;;;;;5023186;28;20042;-78
2023/04/06 09:46:40;;;;;;;7.22;3.10;;;11.40;39.10;;;;;;5019598;28;20480;-78
2023/04/06 09:49:07;;;;;;;6.85;3.00;;;11.50;39.80;;;;;;5023664;28;20122;-78
2023/04/06 09:51:39;;;;;;;7.28;3.22;;;11.60;39.50;;;;;;5005026;28;20037;-80
2023/04/06 09:54:05;;;;;;;7.18;3.40;;;11.60;39.30;;;;;;5020176;28;20029;-79
2023/04/06 09:56:37;;;;;;;9.52;3.38;;;11.70;39.70;;;;;;5023836;28;20102;-79
2023/04/06 09:59:14;;;;;;;8.63;3.22;;;11.50;39.30;;;;;;5023576;28;20038;-79
2023/04/06 10:01:40;;;;;;;5.97;3.20;;;11.70;38.00;;;;;;5027213;28;20121;-80
2023/04/06 10:04:25;;;;;;;5.88;3.38;;;11.60;38.90;;;;;;5029910;28;20127;-79
2023/04/06 10:06:52;;;;;;;7.18;3.67;;;12.10;38.50;;;;;;5027104;28;20065;-78
2023/04/06 10:09:20;;;;;;;7.03;3.63;;;12.00;38.50;;;;;;5030132;28;20497;-79
2023/04/06 10:11:48;;;;;;;6.80;3.72;;;12.50;38.20;;;;;;5023116;28;20467;-78
2023/04/06 10:14:15;;;;;;;10.43;3.95;;;12.20;37.80;;;;;;5023148;28;20121;-78
2023/04/06 10:16:40;;;;;;;5.95;3.20;;;12.80;38.20;;;;;;5027347;28;20101;-79
2023/04/06 10:19:22;;;;;;;5.82;3.50;;;12.40;37.30;;;;;;5022915;28;21455;-78
2023/04/06 10:21:53;;;;;;;6.70;3.42;;;12.20;36.60;;;;;;4996742;28;20060;-80
2023/04/06 10:24:18;;;;;;;8.02;4.45;;;12.50;37.50;;;;;;5026526;28;20155;-80
2023/04/06 10:26:57;;;;;;;9.35;4.93;;;12.10;37.70;;;;;;5027093;28;20104;-77
2023/04/06 10:29:22;;;;;;;9.52;4.65;;;12.10;37.60;;;;;;5024855;28;20025;-79
2023/04/06 10:31:49;;;;;;;9.38;4.97;;;12.10;37.70;;;;;;5019035;28;20376;-78
2023/04/06 10:34:14;;;;;;;7.88;5.05;;;12.10;38.10;;;;;;5027744;28;20029;-78
2023/04/06 10:36:40;;;;;;;8.73;4.57;;;12.70;38.50;;;;;;5019220;28;20025;-79
2023/04/06 10:39:06;;;;;;;8.40;4.93;;;12.80;38.50;;;;;;5019358;28;20536;-79
2023/04/06 10:41:43;;;;;;;8.90;4.80;;;12.80;36.30;;;;;;5022064;28;20022;-79
2023/04/06 10:44:21;;;;;;;13.90;5.43;;;12.60;36.40;;;;;;5005496;28;20125;-78
2023/04/06 10:46:57;;;;;;;10.05;5.97;;;13.00;38.20;;;;;;5040277;28;20105;-78
2023/04/06 10:49:24;;;;;;;8.60;5.68;;;12.90;37.20;;;;;;5021554;28;20073;-80
2023/04/06 10:51:57;;;;;;;10.77;5.47;;;13.00;37.50;;;;;;5020889;28;20458;-79
2023/04/06 10:54:25;;;;;;;9.90;5.57;;;12.70;37.80;;;;;;5027862;28;20466;-79
2023/04/06 10:56:50;;;;;;;8.70;5.30;;;12.60;37.50;;;;;;5024722;28;20029;-78
2023/04/06 10:59:24;;;;;;;9.18;6.03;;;13.20;38.60;;;;;;5004723;28;20025;-81
2023/04/06 11:01:50;;;;;;;9.52;5.80;;;13.00;36.90;;;;;;5007622;28;20053;-77
2023/04/06 11:04:20;;;;;;;9.45;5.97;;;13.00;38.10;;;;;;5022270;28;20186;-76
2023/04/06 11:06:49;;;;;;;10.00;6.72;;;13.20;37.30;;;;;;5035468;28;20448;-78
2023/04/06 11:09:28;;;;;;;10.82;6.07;;;13.00;37.40;;;;;;5025145;28;20223;-77
2023/04/06 11:11:54;;;;;;;12.55;6.90;;;13.20;37.30;;;;;;5030115;28;20091;-77
2023/04/06 11:14:19;;;;;;;10.15;6.63;;;12.80;36.50;;;;;;5021068;28;20220;-77
2023/04/06 11:16:50;;;;;;;10.20;6.57;;;13.60;38.30;;;;;;5020440;28;20228;-78
2023/04/06 11:19:16;;;;;;;10.85;6.78;;;13.60;36.90;;;;;;5017254;28;20040;-77
2023/04/06 11:21:47;;;;;;;9.55;6.05;;;13.80;37.00;;;;;;5012087;28;20033;-77
2023/04/06 11:24:19;;;;;;;9.57;6.07;;;14.10;37.40;;;;;;5016160;28;20390;-79
2023/04/06 11:26:48;;;;;;;9.27;6.00;;;13.50;36.00;;;;;;5020372;28;20038;-77
2023/04/06 11:29:16;;;;;;;12.15;6.53;;;14.20;36.00;;;;;;5018786;28;20427;-77
2023/04/06 11:31:49;;;;;;;11.10;6.45;;;14.10;37.40;;;;;;5021081;28;20037;-75
2023/04/06 11:34:19;;;;;;;11.70;6.93;;;14.10;37.10;;;;;;5022027;28;20034;-75
2023/04/06 11:36:46;;;;;;;12.32;6.90;;;14.10;36.40;;;;;;5016449;28;20034;-78
2023/04/06 11:39:24;;;;;;;9.38;6.72;;;13.70;36.60;;;;;;5018577;28;20105;-74
2023/04/06 11:41:51;;;;;;;11.60;6.90;;;14.00;35.60;;;;;;5025135;28;20091;-75
2023/04/06 11:44:36;;;;;;;10.80;6.68;;;14.10;37.00;;;;;;5019731;28;20184;-75
2023/04/06 11:47:03;;;;;;;11.13;6.95;;;14.00;35.70;;;;;;5024277;28;20032;-74
2023/04/06 11:49:30;;;;;;;8.07;6.03;;;14.50;36.70;;;;;;5022765;28;20188;-78
2023/04/06 11:52:00;;;;;;;11.88;6.07;;;14.50;35.90;;;;;;5020529;28;20036;-75
2023/04/06 11:54:37;;;;;;;12.05;7.03;;;14.40;36.70;;;;;;5004035;28;20080;-75
2023/04/06 11:57:04;;;;;;;11.48;6.97;;;15.00;36.10;;;;;;5022605;28;20095;-74
2023/04/06 11:59:29;;;;;;;11.30;6.85;;;14.70;34.50;;;;;;5023605;28;20070;-74
2023/04/06 12:01:57;;;;;;;10.35;6.70;;;15.10;35.20;;;;;;5022351;28;20365;-75
2023/04/06 12:04:23;;;;;;;10.95;6.90;;;15.10;35.50;;;;;;5020927;28;20461;-76
2023/04/06 12:06:49;;;;;;;11.88;7.07;;;15.30;34.30;;;;;;5020684;28;20312;-74
2023/04/06 12:09:17;;;;;;;10.48;7.32;;;15.10;35.10;;;;;;5021976;28;20021;-75
2023/04/06 12:11:42;;;;;;;11.73;6.65;;;14.50;34.50;;;;;;5017059;28;20021;-75
2023/04/06 12:14:08;;;;;;;11.57;7.07;;;15.00;35.70;;;;;;5023161;28;20108;-76
2023/04/06 12:16:34;;;;;;;12.60;6.50;;;15.40;34.90;;;;;;5024330;28;20530;-74
2023/04/06 12:19:01;;;;;;;9.40;6.70;;;15.10;36.40;;;;;;5029618;28;20035;-74
2023/04/06 12:21:30;;;;;;;9.70;6.35;;;15.00;36.10;;;;;;5027985;28;20243;-74
2023/04/06 12:23:57;;;;;;;9.60;6.55;;;14.70;34.30;;;;;;5024721;28;20040;-76
2023/04/06 12:26:22;;;;;;;10.15;6.10;;;14.90;34.30;;;;;;5029291;28;20553;-76
2023/04/06 12:28:48;;;;;;;10.02;6.50;;;15.20;34.00;;;;;;5026414;28;20128;-76
2023/04/06 12:31:17;;;;;;;9.32;6.50;;;15.60;35.20;;;;;;5027658;28;20037;-74
2023/04/06 12:33:44;;;;;;;11.52;6.72;;;15.10;35.00;;;;;;5027585;28;20037;-75
2023/04/06 12:36:15;;;;;;;8.90;6.35;;;15.20;34.70;;;;;;5022977;28;20097;-75
2023/04/06 12:38:41;;;;;;;10.60;7.15;;;15.50;34.10;;;;;;5004673;28;20041;-75